PWSweather.com
Personal Weather Stations
Station Observations

YeovilGB

Lat: 50.949, Lon: -2.627

Elevation: 70

Station Type: Vantage Pro

http://www.yeovil-weather.me.uk/

High Low Average
Temperature 38.0°F3.3°C 31.2°F-0.4°C 35.0°F1.7°C
Dew Point 34.5°F1.4°C 27.8°F-2.3°C 32.2°F0.1°C
Winds 10.4 mph 16.7 kmh Calm Calm 4.0 mph WSW6.4 kmh WSW
Wind Gusts 18.4 mph29.6 kmh -- 7.0 mph11.3 kmh
Humidity 96% 81% 90%
Pressure 29.57 in1001.4 mb 28.85 in977.0 mb -
Precipitation 0.01 in0.3 mm - -
Hour Temp Dew Point Humidity Winds Wind Gusts Pressure Precip Precip Rate Daily Precip Total
12:00 AM 35.3°F1.8°C 34.0°F1.1°C 95% 1.2 mph ENE1.9 kmh ENE 3.5 mph5.6 kmh 28.92 in979.3 mb - 0.00 in0.0 mm 0.00 in0.0 mm
12:10 AM 35.3°F1.8°C 34.0°F1.1°C 95% Calm Calm 4.6 mph7.4 kmh 28.92 in979.3 mb - 0.00 in0.0 mm 0.00 in0.0 mm
12:20 AM 35.3°F1.8°C 34.0°F1.1°C 95% 3.5 mph NE5.6 kmh NE 6.9 mph11.1 kmh 28.92 in979.3 mb - 0.00 in0.0 mm 0.00 in0.0 mm
12:30 AM 35.3°F1.8°C 34.0°F1.1°C 95% 3.5 mph NE5.6 kmh NE 6.9 mph11.1 kmh 28.92 in979.3 mb - 0.00 in0.0 mm 0.00 in0.0 mm
12:40 AM 35.2°F1.8°C 33.9°F1.1°C 95% 3.5 mph N5.6 kmh N 6.9 mph11.1 kmh 28.91 in979.0 mb - 0.00 in0.0 mm 0.00 in0.0 mm
12:50 AM 35.2°F1.8°C 33.9°F1.1°C 95% 1.2 mph NE1.9 kmh NE 5.8 mph9.3 kmh 28.91 in979.0 mb - 0.00 in0.0 mm 0.00 in0.0 mm
01:00 AM 35.2°F1.8°C 33.9°F1.1°C 95% 3.5 mph NNE5.6 kmh NNE 5.8 mph9.3 kmh 28.91 in979.0 mb - 0.00 in0.0 mm 0.00 in0.0 mm
01:10 AM 35.2°F1.8°C 33.9°F1.1°C 95% 4.6 mph NNE7.4 kmh NNE 6.9 mph11.1 kmh 28.91 in979.0 mb - 0.00 in0.0 mm 0.00 in0.0 mm
01:20 AM 35.3°F1.8°C 34.0°F1.1°C 95% 1.2 mph N1.9 kmh N 3.5 mph5.6 kmh 28.91 in979.0 mb - 0.00 in0.0 mm 0.00 in0.0 mm
01:30 AM 35.3°F1.8°C 34.0°F1.1°C 95% 1.2 mph N1.9 kmh N 3.5 mph5.6 kmh 28.91 in979.0 mb - 0.00 in0.0 mm 0.00 in0.0 mm
01:40 AM 35.3°F1.8°C 34.0°F1.1°C 95% 1.2 mph N1.9 kmh N 3.5 mph5.6 kmh 28.91 in979.0 mb - 0.00 in0.0 mm 0.00 in0.0 mm
01:50 AM 35.4°F1.9°C 34.1°F1.2°C 95% 1.2 mph N1.9 kmh N 4.6 mph7.4 kmh 28.91 in979.0 mb - 0.00 in0.0 mm 0.00 in0.0 mm
02:00 AM 35.5°F1.9°C 34.2°F1.2°C 95% 1.2 mph NNE1.9 kmh NNE 4.6 mph7.4 kmh 28.91 in979.0 mb - 0.00 in0.0 mm 0.00 in0.0 mm
02:10 AM 35.5°F1.9°C 34.2°F1.2°C 95% 1.2 mph N1.9 kmh N 6.9 mph11.1 kmh 28.90 in978.7 mb - 0.00 in0.0 mm 0.00 in0.0 mm
02:20 AM 35.4°F1.9°C 34.1°F1.2°C 95% 2.3 mph NNE3.7 kmh NNE 8.1 mph13.0 kmh 28.90 in978.7 mb - 0.00 in0.0 mm 0.00 in0.0 mm
02:30 AM 35.4°F1.9°C 34.1°F1.2°C 95% 2.3 mph NNE3.7 kmh NNE 4.6 mph7.4 kmh 28.90 in978.7 mb - 0.00 in0.0 mm 0.00 in0.0 mm
02:40 AM 35.4°F1.9°C 34.1°F1.2°C 95% 3.5 mph NNE5.6 kmh NNE 8.1 mph13.0 kmh 28.90 in978.7 mb - 0.00 in0.0 mm 0.00 in0.0 mm
02:50 AM 35.3°F1.8°C 34.0°F1.1°C 95% 1.2 mph N1.9 kmh N 4.6 mph7.4 kmh 28.89 in978.3 mb - 0.00 in0.0 mm 0.00 in0.0 mm
03:00 AM 35.3°F1.8°C 34.0°F1.1°C 95% 5.8 mph N9.3 kmh N 9.2 mph14.8 kmh 28.88 in978.0 mb - 0.00 in0.0 mm 0.00 in0.0 mm
03:10 AM 35.3°F1.8°C 34.0°F1.1°C 95% 2.3 mph N3.7 kmh N 6.9 mph11.1 kmh 28.88 in978.0 mb - 0.00 in0.0 mm 0.00 in0.0 mm
03:20 AM 35.3°F1.8°C 34.0°F1.1°C 95% 4.6 mph NNE7.4 kmh NNE 6.9 mph11.1 kmh 28.88 in978.0 mb - 0.00 in0.0 mm 0.00 in0.0 mm
03:30 AM 35.2°F1.8°C 33.9°F1.1°C 95% 5.8 mph N9.3 kmh N 10.4 mph16.7 kmh 28.88 in978.0 mb - 0.00 in0.0 mm 0.00 in0.0 mm
03:40 AM 35.2°F1.8°C 33.9°F1.1°C 95% 4.6 mph N7.4 kmh N 11.5 mph18.5 kmh 28.87 in977.7 mb - 0.00 in0.0 mm 0.00 in0.0 mm
03:50 AM 35.1°F1.7°C 33.8°F1.0°C 95% 5.8 mph N9.3 kmh N 11.5 mph18.5 kmh 28.86 in977.3 mb - 0.00 in0.0 mm 0.00 in0.0 mm
04:00 AM 35.1°F1.7°C 33.8°F1.0°C 95% 3.5 mph N5.6 kmh N 8.1 mph13.0 kmh 28.86 in977.3 mb - 0.00 in0.0 mm 0.00 in0.0 mm
04:10 AM 35.0°F1.7°C 33.7°F0.9°C 95% 4.6 mph N7.4 kmh N 11.5 mph18.5 kmh 28.85 in977.0 mb - 0.00 in0.0 mm 0.00 in0.0 mm
04:20 AM 35.0°F1.7°C 33.7°F0.9°C 95% 2.3 mph N3.7 kmh N 6.9 mph11.1 kmh 28.86 in977.3 mb - 0.00 in0.0 mm 0.00 in0.0 mm
04:30 AM 34.9°F1.6°C 33.6°F0.9°C 95% 4.6 mph N7.4 kmh N 10.4 mph16.7 kmh 28.86 in977.3 mb - 0.00 in0.0 mm 0.00 in0.0 mm
04:40 AM 34.9°F1.6°C 33.6°F0.9°C 95% 4.6 mph N7.4 kmh N 11.5 mph18.5 kmh 28.86 in977.3 mb - 0.00 in0.0 mm 0.00 in0.0 mm
04:50 AM 34.9°F1.6°C 33.6°F0.9°C 95% 2.3 mph N3.7 kmh N 6.9 mph11.1 kmh 28.86 in977.3 mb - 0.00 in0.0 mm 0.00 in0.0 mm
05:00 AM 35.0°F1.7°C 33.7°F0.9°C 95% 4.6 mph N7.4 kmh N 9.2 mph14.8 kmh 28.87 in977.7 mb - 0.00 in0.0 mm 0.00 in0.0 mm
05:10 AM 35.1°F1.7°C 33.8°F1.0°C 95% 3.5 mph N5.6 kmh N 8.1 mph13.0 kmh 28.88 in978.0 mb - 0.00 in0.0 mm 0.00 in0.0 mm
05:20 AM 35.2°F1.8°C 33.9°F1.1°C 95% 3.5 mph N5.6 kmh N 10.4 mph16.7 kmh 28.89 in978.3 mb - 0.00 in0.0 mm 0.00 in0.0 mm
05:30 AM 35.3°F1.8°C 34.3°F1.3°C 96% 4.6 mph N7.4 kmh N 13.8 mph22.2 kmh 28.89 in978.3 mb - 0.00 in0.0 mm 0.00 in0.0 mm
05:40 AM 35.4°F1.9°C 34.1°F1.2°C 95% 5.8 mph N9.3 kmh N 10.4 mph16.7 kmh 28.90 in978.7 mb - 0.00 in0.0 mm 0.00 in0.0 mm
05:50 AM 35.5°F1.9°C 34.2°F1.2°C 95% 5.8 mph N9.3 kmh N 12.7 mph20.4 kmh 28.90 in978.7 mb - 0.00 in0.0 mm 0.00 in0.0 mm
06:00 AM 35.5°F1.9°C 34.2°F1.2°C 95% 5.8 mph N9.3 kmh N 11.5 mph18.5 kmh 28.90 in978.7 mb - 0.00 in0.0 mm 0.00 in0.0 mm
06:10 AM 35.6°F2.0°C 34.3°F1.3°C 95% 5.8 mph NNE9.3 kmh NNE 11.5 mph18.5 kmh 28.90 in978.7 mb - 0.00 in0.0 mm 0.00 in0.0 mm
06:20 AM 35.6°F2.0°C 34.3°F1.3°C 95% 5.8 mph NNE9.3 kmh NNE 9.2 mph14.8 kmh 28.90 in978.7 mb - 0.00 in0.0 mm 0.00 in0.0 mm
06:30 AM 35.7°F2.1°C 34.4°F1.3°C 95% 6.9 mph N11.1 kmh N 18.4 mph29.6 kmh 28.91 in979.0 mb - 0.00 in0.0 mm 0.00 in0.0 mm
06:40 AM 35.6°F2.0°C 34.3°F1.3°C 95% 4.6 mph N7.4 kmh N 8.1 mph13.0 kmh 28.91 in979.0 mb - 0.00 in0.0 mm 0.00 in0.0 mm
06:50 AM 35.6°F2.0°C 34.3°F1.3°C 95% 3.5 mph N5.6 kmh N 10.4 mph16.7 kmh 28.92 in979.3 mb - 0.00 in0.0 mm 0.00 in0.0 mm
07:00 AM 35.6°F2.0°C 34.3°F1.3°C 95% 8.1 mph N13.0 kmh N 13.8 mph22.2 kmh 28.92 in979.3 mb - 0.00 in0.0 mm 0.00 in0.0 mm
07:10 AM 35.6°F2.0°C 34.3°F1.3°C 95% 3.5 mph N5.6 kmh N 9.2 mph14.8 kmh 28.92 in979.3 mb - 0.00 in0.0 mm 0.00 in0.0 mm
07:20 AM 35.7°F2.1°C 34.4°F1.3°C 95% 5.8 mph N9.3 kmh N 9.2 mph14.8 kmh 28.93 in979.7 mb - 0.00 in0.0 mm 0.00 in0.0 mm
07:30 AM 35.8°F2.1°C 34.5°F1.4°C 95% 4.6 mph N7.4 kmh N 8.1 mph13.0 kmh 28.93 in979.7 mb - 0.00 in0.0 mm 0.00 in0.0 mm
07:40 AM 35.8°F2.1°C 34.5°F1.4°C 95% 8.1 mph N13.0 kmh N 10.4 mph16.7 kmh 28.94 in980.0 mb - 0.00 in0.0 mm 0.00 in0.0 mm
07:50 AM 35.7°F2.1°C 34.4°F1.3°C 95% 6.9 mph N11.1 kmh N 11.5 mph18.5 kmh 28.95 in980.4 mb - 0.00 in0.0 mm 0.00 in0.0 mm
08:00 AM 35.7°F2.1°C 34.4°F1.3°C 95% 8.1 mph N13.0 kmh N 9.2 mph14.8 kmh 28.95 in980.4 mb - 0.00 in0.0 mm 0.00 in0.0 mm
08:10 AM 35.7°F2.1°C 34.4°F1.3°C 95% 5.8 mph N9.3 kmh N 11.5 mph18.5 kmh 28.96 in980.7 mb - 0.00 in0.0 mm 0.00 in0.0 mm
08:20 AM 35.7°F2.1°C 34.4°F1.3°C 95% 5.8 mph N9.3 kmh N 11.5 mph18.5 kmh 28.97 in981.0 mb - 0.00 in0.0 mm 0.00 in0.0 mm
08:30 AM 35.7°F2.1°C 34.4°F1.3°C 95% 6.9 mph N11.1 kmh N 13.8 mph22.2 kmh 28.98 in981.4 mb - 0.00 in0.0 mm 0.00 in0.0 mm
08:40 AM 35.8°F2.1°C 34.5°F1.4°C 95% 6.9 mph N11.1 kmh N 18.4 mph29.6 kmh 28.99 in981.7 mb - 0.00 in0.0 mm 0.00 in0.0 mm
08:50 AM 35.8°F2.1°C 34.2°F1.2°C 94% 5.8 mph NNW9.3 kmh NNW 18.4 mph29.6 kmh 28.99 in981.7 mb - 0.00 in0.0 mm 0.00 in0.0 mm
09:00 AM 35.9°F2.2°C 34.3°F1.3°C 94% 5.8 mph N9.3 kmh N 13.8 mph22.2 kmh 29.00 in982.1 mb - 0.00 in0.0 mm 0.00 in0.0 mm
09:10 AM 35.9°F2.2°C 34.4°F1.3°C 94% 9.2 mph N14.8 kmh N 11.5 mph18.5 kmh 29.01 in982.4 mb - 0.01 in0.3 mm 0.01 in0.3 mm
09:20 AM 36.0°F2.2°C 34.4°F1.3°C 94% 5.8 mph N9.3 kmh N 11.5 mph18.5 kmh 29.02 in982.7 mb - 0.00 in0.0 mm 0.01 in0.3 mm
09:30 AM 36.1°F2.3°C 34.5°F1.4°C 94% 8.1 mph N13.0 kmh N 10.4 mph16.7 kmh 29.02 in982.7 mb - 0.00 in0.0 mm 0.01 in0.3 mm
09:40 AM 36.1°F2.3°C 34.3°F1.3°C 93% 5.8 mph N9.3 kmh N 8.1 mph13.0 kmh 29.03 in983.1 mb - 0.00 in0.0 mm 0.01 in0.3 mm
09:50 AM 36.1°F2.3°C 34.3°F1.3°C 93% 6.9 mph NNW11.1 kmh NNW 11.5 mph18.5 kmh 29.04 in983.4 mb - 0.00 in0.0 mm 0.01 in0.3 mm
10:00 AM 36.1°F2.3°C 34.3°F1.3°C 93% 5.8 mph N9.3 kmh N 12.7 mph20.4 kmh 29.05 in983.7 mb - 0.00 in0.0 mm 0.01 in0.3 mm
10:10 AM 36.0°F2.2°C 34.2°F1.2°C 93% 8.1 mph NNW13.0 kmh NNW 11.5 mph18.5 kmh 29.06 in984.1 mb - 0.00 in0.0 mm 0.01 in0.3 mm
10:20 AM 36.0°F2.2°C 33.9°F1.1°C 92% 6.9 mph NNW11.1 kmh NNW 15.0 mph24.1 kmh 29.07 in984.4 mb - 0.00 in0.0 mm 0.01 in0.3 mm
10:30 AM 35.9°F2.2°C 33.8°F1.0°C 92% 5.8 mph NNW9.3 kmh NNW 9.2 mph14.8 kmh 29.08 in984.8 mb - 0.00 in0.0 mm 0.01 in0.3 mm
10:40 AM 35.8°F2.1°C 33.7°F0.9°C 92% 3.5 mph NNW5.6 kmh NNW 9.2 mph14.8 kmh 29.09 in985.1 mb - 0.00 in0.0 mm 0.01 in0.3 mm
10:50 AM 35.9°F2.2°C 33.8°F1.0°C 92% 3.5 mph N5.6 kmh N 11.5 mph18.5 kmh 29.09 in985.1 mb - 0.00 in0.0 mm 0.01 in0.3 mm
11:00 AM 35.9°F2.2°C 33.5°F0.8°C 91% 5.8 mph N9.3 kmh N 9.2 mph14.8 kmh 29.10 in985.4 mb - 0.00 in0.0 mm 0.01 in0.3 mm
11:10 AM 35.9°F2.2°C 33.5°F0.8°C 91% 8.1 mph NW13.0 kmh NW 11.5 mph18.5 kmh 29.11 in985.8 mb - 0.00 in0.0 mm 0.01 in0.3 mm
11:20 AM 35.7°F2.1°C 33.3°F0.7°C 91% 5.8 mph NNW9.3 kmh NNW 9.2 mph14.8 kmh 29.11 in985.8 mb - 0.00 in0.0 mm 0.01 in0.3 mm
11:30 AM 35.7°F2.1°C 33.1°F0.6°C 90% 5.8 mph NNW9.3 kmh NNW 11.5 mph18.5 kmh 29.12 in986.1 mb - 0.00 in0.0 mm 0.01 in0.3 mm
11:40 AM 35.7°F2.1°C 33.1°F0.6°C 90% 6.9 mph NNW11.1 kmh NNW 11.5 mph18.5 kmh 29.13 in986.5 mb - 0.00 in0.0 mm 0.01 in0.3 mm
11:50 AM 35.9°F2.2°C 33.0°F0.6°C 89% 8.1 mph NW13.0 kmh NW 15.0 mph24.1 kmh 29.13 in986.5 mb - 0.00 in0.0 mm 0.01 in0.3 mm
12:00 PM 36.1°F2.3°C 33.1°F0.6°C 89% 8.1 mph NNW13.0 kmh NNW 11.5 mph18.5 kmh 29.14 in986.8 mb - 0.00 in0.0 mm 0.01 in0.3 mm
12:10 PM 36.1°F2.3°C 33.2°F0.7°C 89% 9.2 mph NNW14.8 kmh NNW 13.8 mph22.2 kmh 29.15 in987.1 mb - 0.00 in0.0 mm 0.01 in0.3 mm
12:20 PM 36.2°F2.3°C 33.3°F0.7°C 89% 4.6 mph NW7.4 kmh NW 11.5 mph18.5 kmh 29.16 in987.5 mb - 0.00 in0.0 mm 0.01 in0.3 mm
12:30 PM 36.2°F2.3°C 32.9°F0.5°C 88% 8.1 mph NW13.0 kmh NW 18.4 mph29.6 kmh 29.16 in987.5 mb - 0.00 in0.0 mm 0.01 in0.3 mm
12:40 PM 36.1°F2.3°C 32.9°F0.5°C 88% 8.1 mph NW13.0 kmh NW 12.7 mph20.4 kmh 29.16 in987.5 mb - 0.00 in0.0 mm 0.01 in0.3 mm
12:50 PM 36.4°F2.4°C 32.9°F0.5°C 87% 10.4 mph NNW16.7 kmh NNW 15.0 mph24.1 kmh 29.18 in988.1 mb - 0.00 in0.0 mm 0.01 in0.3 mm
01:00 PM 37.1°F2.8°C 33.6°F0.9°C 87% 8.1 mph NNW13.0 kmh NNW 11.5 mph18.5 kmh 29.18 in988.1 mb - 0.00 in0.0 mm 0.01 in0.3 mm
01:10 PM 36.9°F2.7°C 33.1°F0.6°C 86% 6.9 mph NNW11.1 kmh NNW 9.2 mph14.8 kmh 29.19 in988.5 mb - 0.00 in0.0 mm 0.01 in0.3 mm
01:20 PM 37.1°F2.8°C 33.3°F0.7°C 86% 2.3 mph NNW3.7 kmh NNW 8.1 mph13.0 kmh 29.20 in988.8 mb - 0.00 in0.0 mm 0.01 in0.3 mm
01:30 PM 37.5°F3.1°C 33.7°F0.9°C 86% 5.8 mph NW9.3 kmh NW 10.4 mph16.7 kmh 29.20 in988.8 mb - 0.00 in0.0 mm 0.01 in0.3 mm
01:40 PM 37.8°F3.2°C 33.7°F0.9°C 85% 6.9 mph NW11.1 kmh NW 12.7 mph20.4 kmh 29.21 in989.2 mb - 0.00 in0.0 mm 0.01 in0.3 mm
01:50 PM 37.9°F3.3°C 33.5°F0.8°C 84% 3.5 mph NW5.6 kmh NW 9.2 mph14.8 kmh 29.21 in989.2 mb - 0.00 in0.0 mm 0.01 in0.3 mm
02:00 PM 38.0°F3.3°C 33.6°F0.9°C 84% 5.8 mph NNW9.3 kmh NNW 11.5 mph18.5 kmh 29.22 in989.5 mb - 0.00 in0.0 mm 0.01 in0.3 mm
02:10 PM 38.0°F3.3°C 33.6°F0.9°C 84% 4.6 mph NW7.4 kmh NW 10.4 mph16.7 kmh 29.22 in989.5 mb - 0.00 in0.0 mm 0.01 in0.3 mm
02:20 PM 37.9°F3.3°C 33.5°F0.8°C 84% 3.5 mph NW5.6 kmh NW 11.5 mph18.5 kmh 29.23 in989.8 mb - 0.00 in0.0 mm 0.01 in0.3 mm
02:30 PM 37.8°F3.2°C 33.1°F0.6°C 83% 8.1 mph NW13.0 kmh NW 15.0 mph24.1 kmh 29.23 in989.8 mb - 0.00 in0.0 mm 0.01 in0.3 mm
02:40 PM 37.7°F3.2°C 32.7°F0.4°C 82% 5.8 mph NW9.3 kmh NW 11.5 mph18.5 kmh 29.24 in990.2 mb - 0.00 in0.0 mm 0.01 in0.3 mm
02:50 PM 37.7°F3.2°C 32.7°F0.4°C 82% 8.1 mph NW13.0 kmh NW 12.7 mph20.4 kmh 29.25 in990.5 mb - 0.00 in0.0 mm 0.01 in0.3 mm
03:00 PM 37.6°F3.1°C 32.6°F0.3°C 82% 6.9 mph NNW11.1 kmh NNW 9.2 mph14.8 kmh 29.25 in990.5 mb - 0.00 in0.0 mm 0.01 in0.3 mm
03:10 PM 37.5°F3.1°C 32.2°F0.1°C 81% 4.6 mph NW7.4 kmh NW 11.5 mph18.5 kmh 29.26 in990.9 mb - 0.00 in0.0 mm 0.01 in0.3 mm
03:20 PM 37.4°F3.0°C 32.1°F0.1°C 81% 4.6 mph NNW7.4 kmh NNW 8.1 mph13.0 kmh 29.27 in991.2 mb - 0.00 in0.0 mm 0.01 in0.3 mm
03:30 PM 37.2°F2.9°C 31.9°F-0.1°C 81% 3.5 mph NW5.6 kmh NW 9.2 mph14.8 kmh 29.27 in991.2 mb - 0.00 in0.0 mm 0.01 in0.3 mm
03:40 PM 37.0°F2.8°C 31.7°F-0.2°C 81% 2.3 mph NW3.7 kmh NW 9.2 mph14.8 kmh 29.28 in991.5 mb - 0.00 in0.0 mm 0.01 in0.3 mm
03:50 PM 36.7°F2.6°C 31.7°F-0.2°C 82% Calm Calm 3.5 mph5.6 kmh 29.29 in991.9 mb - 0.00 in0.0 mm 0.01 in0.3 mm
04:00 PM 36.3°F2.4°C 31.3°F-0.4°C 82% 1.2 mph NW1.9 kmh NW 2.3 mph3.7 kmh 29.30 in992.2 mb - 0.00 in0.0 mm 0.01 in0.3 mm
04:10 PM 35.9°F2.2°C 31.3°F-0.4°C 83% 3.5 mph NW5.6 kmh NW 9.2 mph14.8 kmh 29.30 in992.2 mb - 0.00 in0.0 mm 0.01 in0.3 mm
04:20 PM 35.7°F2.1°C 31.0°F-0.6°C 83% Calm Calm 2.3 mph3.7 kmh 29.31 in992.6 mb - 0.00 in0.0 mm 0.01 in0.3 mm
04:30 PM 35.4°F1.9°C 31.1°F-0.5°C 84% Calm Calm -- 29.32 in992.9 mb - 0.00 in0.0 mm 0.01 in0.3 mm
04:40 PM 35.1°F1.7°C 31.1°F-0.5°C 85% 1.2 mph WNW1.9 kmh WNW 5.8 mph9.3 kmh 29.32 in992.9 mb - 0.00 in0.0 mm 0.01 in0.3 mm
04:50 PM 34.8°F1.6°C 30.8°F-0.7°C 85% 1.2 mph NW1.9 kmh NW 4.6 mph7.4 kmh 29.33 in993.2 mb - 0.00 in0.0 mm 0.01 in0.3 mm
05:00 PM 34.5°F1.4°C 30.5°F-0.8°C 85% Calm Calm -- 29.34 in993.6 mb - 0.00 in0.0 mm 0.01 in0.3 mm
05:10 PM 34.3°F1.3°C 30.3°F-0.9°C 85% Calm Calm 1.2 mph1.9 kmh 29.34 in993.6 mb - 0.00 in0.0 mm 0.01 in0.3 mm
05:20 PM 34.2°F1.2°C 30.2°F-1.0°C 85% 1.2 mph NW1.9 kmh NW 4.6 mph7.4 kmh 29.35 in993.9 mb - 0.00 in0.0 mm 0.01 in0.3 mm
05:30 PM 34.0°F1.1°C 30.0°F-1.1°C 85% 2.3 mph NW3.7 kmh NW 3.5 mph5.6 kmh 29.36 in994.2 mb - 0.00 in0.0 mm 0.01 in0.3 mm
05:40 PM 33.9°F1.1°C 29.9°F-1.2°C 85% Calm Calm -- 29.36 in994.2 mb - 0.00 in0.0 mm 0.01 in0.3 mm
05:50 PM 33.7°F0.9°C 29.7°F-1.3°C 85% 1.2 mph NW1.9 kmh NW 3.5 mph5.6 kmh 29.36 in994.2 mb - 0.00 in0.0 mm 0.01 in0.3 mm
06:00 PM 33.8°F1.0°C 29.8°F-1.2°C 85% 1.2 mph NW1.9 kmh NW 4.6 mph7.4 kmh 29.37 in994.6 mb - 0.00 in0.0 mm 0.01 in0.3 mm
06:10 PM 33.7°F0.9°C 29.7°F-1.3°C 85% Calm Calm -- 29.37 in994.6 mb - 0.00 in0.0 mm 0.01 in0.3 mm
06:20 PM 33.4°F0.8°C 29.4°F-1.4°C 85% Calm Calm 3.5 mph5.6 kmh 29.38 in994.9 mb - 0.00 in0.0 mm 0.01 in0.3 mm
06:30 PM 33.2°F0.7°C 29.2°F-1.6°C 85% 2.3 mph NW3.7 kmh NW 4.6 mph7.4 kmh 29.39 in995.3 mb - 0.00 in0.0 mm 0.01 in0.3 mm
06:40 PM 33.0°F0.6°C 29.0°F-1.7°C 85% Calm Calm 2.3 mph3.7 kmh 29.39 in995.3 mb - 0.00 in0.0 mm 0.01 in0.3 mm
07:00 PM 33.3°F0.7°C 28.7°F-1.8°C 83% 3.5 mph WNW5.6 kmh WNW 5.8 mph9.3 kmh 29.41 in995.9 mb - 0.00 in0.0 mm 0.01 in0.3 mm
07:10 PM 33.5°F0.8°C 28.6°F-1.9°C 82% 1.2 mph NW1.9 kmh NW 2.3 mph3.7 kmh 29.41 in995.9 mb - 0.00 in0.0 mm 0.01 in0.3 mm
07:20 PM 33.5°F0.8°C 28.6°F-1.9°C 82% Calm Calm 1.2 mph1.9 kmh 29.42 in996.3 mb - 0.00 in0.0 mm 0.01 in0.3 mm
07:30 PM 33.5°F0.8°C 28.6°F-1.9°C 82% Calm Calm -- 29.43 in996.6 mb - 0.00 in0.0 mm 0.01 in0.3 mm
07:50 PM 33.0°F0.6°C 28.1°F-2.2°C 82% Calm Calm 1.2 mph1.9 kmh 29.44 in997.0 mb - 0.00 in0.0 mm 0.01 in0.3 mm
08:00 PM 32.8°F0.4°C 28.2°F-2.1°C 83% Calm Calm -- 29.46 in997.6 mb - 0.00 in0.0 mm 0.01 in0.3 mm
08:10 PM 32.9°F0.5°C 28.3°F-2.1°C 83% 1.2 mph NW1.9 kmh NW 3.5 mph5.6 kmh 29.46 in997.6 mb - 0.00 in0.0 mm 0.01 in0.3 mm
08:20 PM 33.0°F0.6°C 28.4°F-2.0°C 83% Calm Calm 1.2 mph1.9 kmh 29.47 in998.0 mb - 0.00 in0.0 mm 0.01 in0.3 mm
08:30 PM 33.0°F0.6°C 28.4°F-2.0°C 83% Calm Calm -- 29.48 in998.3 mb - 0.00 in0.0 mm 0.01 in0.3 mm
08:40 PM 32.9°F0.5°C 28.3°F-2.1°C 83% Calm Calm 2.3 mph3.7 kmh 29.48 in998.3 mb - 0.00 in0.0 mm 0.01 in0.3 mm
08:50 PM 32.7°F0.4°C 28.1°F-2.2°C 83% Calm Calm 1.2 mph1.9 kmh 29.49 in998.6 mb - 0.00 in0.0 mm 0.01 in0.3 mm
09:00 PM 32.6°F0.3°C 28.0°F-2.2°C 83% Calm Calm -- 29.49 in998.6 mb - 0.00 in0.0 mm 0.01 in0.3 mm
09:10 PM 32.6°F0.3°C 28.3°F-2.1°C 84% Calm Calm -- 29.50 in999.0 mb - 0.00 in0.0 mm 0.01 in0.3 mm
09:20 PM 32.4°F0.2°C 28.1°F-2.2°C 84% Calm Calm -- 29.50 in999.0 mb - 0.00 in0.0 mm 0.01 in0.3 mm
09:30 PM 32.1°F0.1°C 27.8°F-2.3°C 84% Calm Calm -- 29.51 in999.3 mb - 0.00 in0.0 mm 0.01 in0.3 mm
09:40 PM 32.0°F0.0°C 28.0°F-2.2°C 85% Calm Calm -- 29.52 in999.7 mb - 0.00 in0.0 mm 0.01 in0.3 mm
09:50 PM 32.0°F0.0°C 28.3°F-2.1°C 86% Calm Calm -- 29.53 in1000.0 mb - 0.00 in0.0 mm 0.01 in0.3 mm
10:00 PM 31.9°F-0.1°C 28.2°F-2.1°C 86% Calm Calm -- 29.53 in1000.0 mb - 0.00 in0.0 mm 0.01 in0.3 mm
10:10 PM 31.7°F-0.2°C 28.0°F-2.2°C 86% Calm Calm -- 29.54 in1000.3 mb - 0.00 in0.0 mm 0.01 in0.3 mm
10:20 PM 31.5°F-0.3°C 28.1°F-2.2°C 87% Calm Calm -- 29.54 in1000.3 mb - 0.00 in0.0 mm 0.01 in0.3 mm
10:30 PM 31.4°F-0.3°C 28.0°F-2.2°C 87% Calm Calm -- 29.54 in1000.3 mb - 0.00 in0.0 mm 0.01 in0.3 mm
10:40 PM 31.3°F-0.4°C 28.2°F-2.1°C 88% Calm Calm -- 29.54 in1000.3 mb - 0.00 in0.0 mm 0.01 in0.3 mm
10:50 PM 31.4°F-0.3°C 28.5°F-1.9°C 89% Calm Calm -- 29.54 in1000.3 mb - 0.00 in0.0 mm 0.01 in0.3 mm
11:00 PM 31.5°F-0.3°C 28.6°F-1.9°C 89% Calm Calm 2.3 mph3.7 kmh 29.55 in1000.7 mb - 0.00 in0.0 mm 0.01 in0.3 mm
11:10 PM 31.4°F-0.3°C 28.5°F-1.9°C 89% Calm Calm -- 29.55 in1000.7 mb - 0.00 in0.0 mm 0.01 in0.3 mm
11:20 PM 31.3°F-0.4°C 28.8°F-1.8°C 90% Calm Calm -- 29.56 in1001.0 mb - 0.00 in0.0 mm 0.01 in0.3 mm
11:30 PM 31.4°F-0.3°C 28.8°F-1.8°C 90% Calm Calm -- 29.57 in1001.4 mb - 0.00 in0.0 mm 0.01 in0.3 mm
11:40 PM 31.2°F-0.4°C 28.6°F-1.9°C 90% Calm Calm -- 29.57 in1001.4 mb - 0.00 in0.0 mm 0.01 in0.3 mm
11:50 PM 31.2°F-0.4°C 28.9°F-1.7°C 91% Calm Calm -- 29.57 in1001.4 mb - 0.00 in0.0 mm 0.01 in0.3 mm